Time,TemperatureF,DewpointF,PressureIn,WindDirection,WindDirectionDegrees,WindSpeedMPH,WindSpeedGustMPH,Humidity,HourlyPrecipIn,Conditions,Clouds,dailyrainin,SolarRadiationWatts/m^2,SoftwareType,DateUTC
2013-08-06 00:02:00,69.0,36.0,29.79,NE,44,8.0,-999.0,30,-99.99,,,-99.99,0.000000,,2013-08-06 06:02:00,
2013-08-06 00:32:00,69.0,39.0,29.79,NE,40,7.0,-999.0,33,-99.99,,,-99.99,0.000000,,2013-08-06 06:32:00,
2013-08-06 00:43:00,69.0,39.0,29.79,NE,38,8.0,-999.0,33,-99.99,,,-99.99,0.000000,,2013-08-06 06:43:00,
2013-08-06 00:52:00,69.0,39.0,29.79,NE,38,8.0,-999.0,33,-99.99,,,-99.99,0.000000,,2013-08-06 06:52:00,
2013-08-06 01:01:00,68.0,38.0,29.79,ENE,67,5.0,-999.0,33,-99.99,,,-99.99,0.000000,,2013-08-06 07:01:00,
2013-08-06 01:12:00,67.0,38.0,29.79,NE,50,4.0,-999.0,34,-99.99,,,-99.99,0.000000,,2013-08-06 07:12:00,
2013-08-06 01:22:00,67.0,38.0,29.79,NE,50,4.0,-999.0,34,-99.99,,,-99.99,0.000000,,2013-08-06 07:22:00,
2013-08-06 01:32:00,67.0,38.0,29.80,ENE,57,4.0,-999.0,34,-99.99,,,-99.99,0.000000,,2013-08-06 07:32:00,
2013-08-06 01:43:00,66.0,38.0,29.80,ENE,63,1.0,-999.0,35,-99.99,,,-99.99,0.000000,,2013-08-06 07:43:00,
2013-08-06 01:53:00,66.0,38.0,29.80,ENE,63,1.0,-999.0,35,-99.99,,,-99.99,0.000000,,2013-08-06 07:53:00,
2013-08-06 02:01:00,66.0,38.0,29.80,NE,47,9.0,-999.0,36,-99.99,,,-99.99,0.000000,,2013-08-06 08:01:00,
2013-08-06 02:11:00,66.0,39.0,29.81,NE,49,10.0,-999.0,37,-99.99,,,-99.99,0.000000,,2013-08-06 08:11:00,
2013-08-06 02:21:00,66.0,39.0,29.81,NE,49,10.0,-999.0,37,-99.99,,,-99.99,0.000000,,2013-08-06 08:21:00,
2013-08-06 02:33:00,65.0,39.0,29.81,NE,49,8.0,-999.0,39,-99.99,,,-99.99,0.000000,,2013-08-06 08:33:00,
2013-08-06 02:43:00,63.0,39.0,29.81,NE,45,8.0,-999.0,41,-99.99,,,-99.99,0.000000,,2013-08-06 08:43:00,
2013-08-06 02:52:00,63.0,39.0,29.81,NE,45,8.0,-999.0,41,-99.99,,,-99.99,0.000000,,2013-08-06 08:52:00,
2013-08-06 03:01:00,63.0,39.0,29.81,NE,51,2.0,-999.0,41,-99.99,,,-99.99,0.000000,,2013-08-06 09:01:00,
2013-08-06 03:11:00,63.0,39.0,29.82,ENE,62,0.0,-999.0,41,-99.99,,,-99.99,0.000000,,2013-08-06 09:11:00,
2013-08-06 03:22:00,63.0,39.0,29.82,ENE,62,0.0,-999.0,41,-99.99,,,-99.99,0.000000,,2013-08-06 09:22:00,
2013-08-06 03:32:00,64.0,39.0,29.82,ESE,103,4.0,-999.0,40,-99.99,,,-99.99,0.000000,,2013-08-06 09:32:00,
2013-08-06 03:43:00,66.0,40.0,29.82,East,91,6.0,-999.0,38,-99.99,,,-99.99,0.000000,,2013-08-06 09:43:00,
2013-08-06 03:52:00,66.0,40.0,29.82,East,91,6.0,-999.0,38,-99.99,,,-99.99,0.000000,,2013-08-06 09:52:00,
2013-08-06 04:01:00,66.0,40.0,29.82,SE,137,8.0,-999.0,38,-99.99,,,-99.99,0.000000,,2013-08-06 10:01:00,
2013-08-06 04:11:00,65.0,39.0,29.83,East,80,7.0,-999.0,38,-99.99,,,-99.99,0.000000,,2013-08-06 10:11:00,
2013-08-06 04:22:00,65.0,39.0,29.83,East,80,7.0,-999.0,38,-99.99,,,-99.99,0.000000,,2013-08-06 10:22:00,
2013-08-06 04:32:00,65.0,39.0,29.83,ESE,103,6.0,-999.0,39,-99.99,,,-99.99,0.000000,,2013-08-06 10:32:00,
2013-08-06 04:43:00,64.0,39.0,29.83,ENE,78,2.0,-999.0,40,-99.99,,,-99.99,0.000000,,2013-08-06 10:43:00,
2013-08-06 04:52:00,64.0,39.0,29.83,ENE,78,2.0,-999.0,40,-99.99,,,-99.99,0.000000,,2013-08-06 10:52:00,
2013-08-06 05:01:00,64.0,40.0,29.83,ESE,109,0.0,-999.0,41,-99.99,,,-99.99,0.000000,,2013-08-06 11:01:00,
2013-08-06 05:11:00,62.0,39.0,29.83,ENE,67,2.0,-999.0,42,-99.99,,,-99.99,0.000000,,2013-08-06 11:11:00,
2013-08-06 05:22:00,62.0,39.0,29.83,ENE,67,2.0,-999.0,42,-99.99,,,-99.99,0.000000,,2013-08-06 11:22:00,
2013-08-06 05:32:00,62.0,39.0,29.84,ENE,59,4.0,-999.0,42,-99.99,,,-99.99,0.000000,,2013-08-06 11:32:00,
2013-08-06 05:43:00,59.0,39.0,29.84,NE,36,3.0,-999.0,48,-99.99,,,-99.99,0.000000,,2013-08-06 11:43:00,
2013-08-06 05:53:00,59.0,39.0,29.84,NE,36,3.0,-999.0,48,-99.99,,,-99.99,0.000000,,2013-08-06 11:53:00,
2013-08-06 06:01:00,58.0,39.0,29.84,NE,50,8.0,-999.0,49,-99.99,,,-99.99,0.000000,,2013-08-06 12:01:00,
2013-08-06 06:11:00,58.0,40.0,29.85,NE,44,4.0,-999.0,51,-99.99,,,-99.99,0.000000,,2013-08-06 12:11:00,
2013-08-06 06:22:00,58.0,40.0,29.85,NE,44,4.0,-999.0,51,-99.99,,,-99.99,0.000000,,2013-08-06 12:22:00,
2013-08-06 06:32:00,57.0,40.0,29.85,NE,46,6.0,-999.0,53,-99.99,,,-99.99,7.000000,,2013-08-06 12:32:00,
2013-08-06 06:43:00,56.0,40.0,29.86,NE,46,5.0,-999.0,54,-99.99,,,-99.99,16.000000,,2013-08-06 12:43:00,
2013-08-06 06:52:00,56.0,40.0,29.86,NE,46,5.0,-999.0,54,-99.99,,,-99.99,16.000000,,2013-08-06 12:52:00,
2013-08-06 07:01:00,57.0,41.0,29.86,NE,49,5.0,-999.0,54,-99.99,,,-99.99,33.000000,,2013-08-06 13:01:00,
2013-08-06 07:11:00,58.0,40.0,29.87,NE,34,1.0,-999.0,52,-99.99,,,-99.99,69.000000,,2013-08-06 13:11:00,
2013-08-06 07:22:00,58.0,40.0,29.87,NE,34,1.0,-999.0,52,-99.99,,,-99.99,69.000000,,2013-08-06 13:22:00,
2013-08-06 07:32:00,60.0,42.0,29.87,NNW,341,0.0,-999.0,51,-99.99,,,-99.99,113.000000,,2013-08-06 13:32:00,
2013-08-06 07:42:00,62.0,42.0,29.87,North,360,3.0,-999.0,48,-99.99,,,-99.99,167.000000,,2013-08-06 13:42:00,
2013-08-06 07:53:00,62.0,42.0,29.87,North,360,3.0,-999.0,48,-99.99,,,-99.99,167.000000,,2013-08-06 13:53:00,
2013-08-06 08:01:00,63.0,43.0,29.88,NNW,339,0.0,-999.0,48,-99.99,,,-99.99,213.000000,,2013-08-06 14:01:00,
2013-08-06 08:11:00,63.0,43.0,29.88,NNW,339,0.0,-999.0,48,-99.99,,,-99.99,213.000000,,2013-08-06 14:11:00,
2013-08-06 08:22:00,63.0,45.0,29.89,North,355,1.0,-999.0,51,-99.99,,,-99.99,260.000000,,2013-08-06 14:22:00,
2013-08-06 08:32:00,64.0,45.0,29.88,NW,319,2.0,-999.0,51,-99.99,,,-99.99,309.000000,,2013-08-06 14:32:00,
2013-08-06 08:42:00,64.0,45.0,29.88,NW,319,2.0,-999.0,51,-99.99,,,-99.99,309.000000,,2013-08-06 14:42:00,
2013-08-06 08:53:00,65.0,45.0,29.88,NNW,331,1.0,-999.0,48,-99.99,,,-99.99,353.000000,,2013-08-06 14:53:00,
2013-08-06 09:02:00,66.0,46.0,29.88,North,349,2.0,-999.0,48,-99.99,,,-99.99,404.000000,,2013-08-06 15:02:00,
2013-08-06 09:11:00,66.0,46.0,29.88,North,349,2.0,-999.0,48,-99.99,,,-99.99,404.000000,,2013-08-06 15:11:00,
2013-08-06 09:22:00,68.0,45.0,29.88,North,349,3.0,-999.0,43,-99.99,,,-99.99,452.000000,,2013-08-06 15:22:00,
2013-08-06 09:33:00,70.0,42.0,29.88,NE,50,6.0,-999.0,36,-99.99,,,-99.99,497.000000,,2013-08-06 15:33:00,
2013-08-06 09:44:00,70.0,42.0,29.88,NE,50,6.0,-999.0,36,-99.99,,,-99.99,497.000000,,2013-08-06 15:44:00,
2013-08-06 09:52:00,71.0,42.0,29.88,ENE,71,4.0,-999.0,35,-99.99,,,-99.99,543.000000,,2013-08-06 15:52:00,
2013-08-06 10:02:00,71.0,42.0,29.88,NE,48,2.0,-999.0,35,-99.99,,,-99.99,587.000000,,2013-08-06 16:02:00,
2013-08-06 10:11:00,71.0,42.0,29.88,NE,48,2.0,-999.0,35,-99.99,,,-99.99,587.000000,,2013-08-06 16:11:00,
2013-08-06 10:22:00,72.0,42.0,29.88,East,86,2.0,-999.0,34,-99.99,,,-99.99,631.000000,,2013-08-06 16:22:00,
2013-08-06 10:32:00,73.0,43.0,29.88,NNE,32,2.0,-999.0,34,-99.99,,,-99.99,671.000000,,2013-08-06 16:32:00,
2013-08-06 10:43:00,73.0,43.0,29.88,NNE,32,2.0,-999.0,34,-99.99,,,-99.99,671.000000,,2013-08-06 16:43:00,
2013-08-06 10:52:00,74.0,42.0,29.88,ESE,123,1.0,-999.0,32,-99.99,,,-99.99,707.000000,,2013-08-06 16:52:00,
2013-08-06 11:02:00,75.0,44.0,29.88,WNW,300,1.0,-999.0,33,-99.99,,,-99.99,738.000000,,2013-08-06 17:02:00,
2013-08-06 11:11:00,75.0,44.0,29.88,WNW,300,1.0,-999.0,33,-99.99,,,-99.99,738.000000,,2013-08-06 17:11:00,
2013-08-06 11:21:00,76.0,45.0,29.88,NW,307,1.0,-999.0,33,-99.99,,,-99.99,770.000000,,2013-08-06 17:21:00,
2013-08-06 11:32:00,77.0,44.0,29.87,NW,308,2.0,-999.0,31,-99.99,,,-99.99,802.000000,,2013-08-06 17:32:00,
2013-08-06 11:44:00,77.0,44.0,29.87,NW,308,2.0,-999.0,31,-99.99,,,-99.99,802.000000,,2013-08-06 17:44:00,
2013-08-06 11:52:00,77.0,44.0,29.87,NW,309,1.0,-999.0,31,-99.99,,,-99.99,828.000000,,2013-08-06 17:52:00,
2013-08-06 12:01:00,78.0,43.0,29.87,NW,326,2.0,-999.0,29,-99.99,,,-99.99,854.000000,,2013-08-06 18:01:00,
2013-08-06 12:11:00,78.0,43.0,29.87,NW,326,2.0,-999.0,29,-99.99,,,-99.99,854.000000,,2013-08-06 18:11:00,
2013-08-06 12:22:00,79.0,42.0,29.87,WNW,300,2.0,-999.0,27,-99.99,,,-99.99,870.000000,,2013-08-06 18:22:00,
2013-08-06 12:32:00,80.0,40.0,29.86,West,271,2.0,-999.0,24,-99.99,,,-99.99,893.000000,,2013-08-06 18:32:00,
2013-08-06 12:43:00,80.0,40.0,29.86,West,271,2.0,-999.0,24,-99.99,,,-99.99,893.000000,,2013-08-06 18:43:00,
2013-08-06 12:52:00,81.0,41.0,29.85,East,92,2.0,-999.0,24,-99.99,,,-99.99,905.000000,,2013-08-06 18:52:00,
2013-08-06 13:11:00,81.0,41.0,29.85,NNE,26,1.0,-999.0,24,-99.99,,,-99.99,914.000000,,2013-08-06 19:11:00,
2013-08-06 13:21:00,81.0,40.0,29.84,NE,46,1.0,-999.0,23,-99.99,,,-99.99,921.000000,,2013-08-06 19:21:00,
2013-08-06 13:32:00,83.0,41.0,29.84,WNW,292,0.0,-999.0,23,-99.99,,,-99.99,926.000000,,2013-08-06 19:32:00,
2013-08-06 13:42:00,83.0,41.0,29.84,WNW,292,0.0,-999.0,23,-99.99,,,-99.99,926.000000,,2013-08-06 19:42:00,
2013-08-06 13:52:00,83.0,39.0,29.83,NNE,21,2.0,-999.0,21,-99.99,,,-99.99,916.000000,,2013-08-06 19:52:00,
2013-08-06 14:01:00,84.0,39.0,29.82,NW,325,1.0,-999.0,20,-99.99,,,-99.99,914.000000,,2013-08-06 20:01:00,
2013-08-06 14:11:00,84.0,39.0,29.82,NW,325,1.0,-999.0,20,-99.99,,,-99.99,914.000000,,2013-08-06 20:11:00,
2013-08-06 14:22:00,84.0,33.0,29.81,WNW,283,3.0,-999.0,16,-99.99,,,-99.99,909.000000,,2013-08-06 20:22:00,
2013-08-06 14:32:00,85.0,32.0,29.80,South,184,3.0,-999.0,15,-99.99,,,-99.99,900.000000,,2013-08-06 20:32:00,
2013-08-06 14:44:00,85.0,32.0,29.80,South,184,3.0,-999.0,15,-99.99,,,-99.99,900.000000,,2013-08-06 20:44:00,
2013-08-06 14:52:00,86.0,35.0,29.80,West,265,1.0,-999.0,16,-99.99,,,-99.99,898.000000,,2013-08-06 20:52:00,
2013-08-06 15:01:00,86.0,35.0,29.80,West,265,1.0,-999.0,16,-99.99,,,-99.99,898.000000,,2013-08-06 21:01:00,
2013-08-06 15:11:00,86.0,35.0,29.80,West,265,1.0,-999.0,16,-99.99,,,-99.99,898.000000,,2013-08-06 21:11:00,
2013-08-06 15:22:00,86.0,38.0,29.80,NE,40,2.0,-999.0,18,-99.99,,,-99.99,149.000000,,2013-08-06 21:22:00,
2013-08-06 15:32:00,86.0,33.0,29.79,NW,321,1.0,-999.0,15,-99.99,,,-99.99,863.000000,,2013-08-06 21:32:00,
2013-08-06 15:43:00,86.0,33.0,29.79,NW,321,1.0,-999.0,15,-99.99,,,-99.99,863.000000,,2013-08-06 21:43:00,
2013-08-06 15:52:00,87.0,28.0,29.79,NNE,31,2.0,-999.0,12,-99.99,,,-99.99,856.000000,,2013-08-06 21:52:00,
2013-08-06 16:01:00,88.0,33.0,29.79,NW,311,5.0,-999.0,14,-99.99,,,-99.99,844.000000,,2013-08-06 22:01:00,
2013-08-06 16:11:00,88.0,33.0,29.79,NW,311,5.0,-999.0,14,-99.99,,,-99.99,844.000000,,2013-08-06 22:11:00,
2013-08-06 16:22:00,88.0,36.0,29.79,WNW,294,2.0,-999.0,16,-99.99,,,-99.99,814.000000,,2013-08-06 22:22:00,
2013-08-06 16:32:00,88.0,33.0,29.79,NW,311,4.0,-999.0,14,-99.99,,,-99.99,719.000000,,2013-08-06 22:32:00,
2013-08-06 16:43:00,88.0,33.0,29.79,NW,311,4.0,-999.0,14,-99.99,,,-99.99,719.000000,,2013-08-06 22:43:00,
2013-08-06 16:53:00,88.0,31.0,29.79,North,11,4.0,-999.0,13,-99.99,,,-99.99,670.000000,,2013-08-06 22:53:00,
2013-08-06 17:01:00,88.0,33.0,29.79,North,5,5.0,-999.0,14,-99.99,,,-99.99,619.000000,,2013-08-06 23:01:00,
2013-08-06 17:11:00,88.0,33.0,29.79,North,5,5.0,-999.0,14,-99.99,,,-99.99,619.000000,,2013-08-06 23:11:00,
2013-08-06 17:22:00,87.0,32.0,29.79,NE,48,5.0,-999.0,14,-99.99,,,-99.99,573.000000,,2013-08-06 23:22:00,
2013-08-06 17:32:00,86.0,36.0,29.79,North,5,10.0,-999.0,17,-99.99,,,-99.99,531.000000,,2013-08-06 23:32:00,
2013-08-06 17:43:00,86.0,36.0,29.79,North,5,10.0,-999.0,17,-99.99,,,-99.99,531.000000,,2013-08-06 23:43:00,
2013-08-06 17:52:00,86.0,38.0,29.79,ENE,59,10.0,-999.0,18,-99.99,,,-99.99,464.000000,,2013-08-06 23:52:00,
2013-08-06 18:01:00,85.0,35.0,29.79,North,355,11.0,-999.0,17,-99.99,,,-99.99,439.000000,,2013-08-07 00:01:00,
2013-08-06 18:11:00,85.0,35.0,29.79,North,355,11.0,-999.0,17,-99.99,,,-99.99,439.000000,,2013-08-07 00:11:00,
2013-08-06 18:21:00,85.0,35.0,29.79,North,355,11.0,-999.0,17,-99.99,,,-99.99,439.000000,,2013-08-07 00:21:00,
2013-08-06 18:32:00,83.0,36.0,29.80,NE,40,16.0,-999.0,19,-99.99,,,-99.99,338.000000,,2013-08-07 00:32:00,
2013-08-06 18:43:00,83.0,36.0,29.80,NE,40,16.0,-999.0,19,-99.99,,,-99.99,338.000000,,2013-08-07 00:43:00,
2013-08-06 18:52:00,82.0,38.0,29.80,NE,39,16.0,-999.0,21,-99.99,,,-99.99,279.000000,,2013-08-07 00:52:00,
2013-08-06 19:01:00,81.0,39.0,29.80,North,9,18.0,-999.0,22,-99.99,,,-99.99,237.000000,,2013-08-07 01:01:00,
2013-08-06 19:11:00,81.0,39.0,29.80,North,9,18.0,-999.0,22,-99.99,,,-99.99,237.000000,,2013-08-07 01:11:00,
2013-08-06 19:22:00,80.0,38.0,29.80,NNE,27,15.0,-999.0,22,-99.99,,,-99.99,181.000000,,2013-08-07 01:22:00,
2013-08-06 19:32:00,79.0,39.0,29.81,NE,46,14.0,-999.0,24,-99.99,,,-99.99,116.000000,,2013-08-07 01:32:00,
2013-08-06 19:43:00,79.0,39.0,29.81,NE,46,14.0,-999.0,24,-99.99,,,-99.99,116.000000,,2013-08-07 01:43:00,
2013-08-06 19:52:00,79.0,40.0,29.81,North,5,16.0,-999.0,25,-99.99,,,-99.99,33.000000,,2013-08-07 01:52:00,
2013-08-06 20:02:00,78.0,39.0,29.82,NE,37,12.0,-999.0,25,-99.99,,,-99.99,26.000000,,2013-08-07 02:02:00,
2013-08-06 20:11:00,78.0,39.0,29.82,NE,37,12.0,-999.0,25,-99.99,,,-99.99,26.000000,,2013-08-07 02:11:00,
2013-08-06 20:22:00,76.0,40.0,29.84,NNE,33,12.0,-999.0,27,-99.99,,,-99.99,16.000000,,2013-08-07 02:22:00,
2013-08-06 20:33:00,75.0,39.0,29.85,NNE,28,11.0,-999.0,27,-99.99,,,-99.99,7.000000,,2013-08-07 02:33:00,
2013-08-06 20:43:00,75.0,39.0,29.85,NNE,28,11.0,-999.0,27,-99.99,,,-99.99,7.000000,,2013-08-07 02:43:00,
2013-08-06 20:53:00,74.0,39.0,29.85,NE,36,9.0,-999.0,28,-99.99,,,-99.99,0.000000,,2013-08-07 02:53:00,
2013-08-06 21:01:00,73.0,39.0,29.86,NNE,22,10.0,-999.0,29,-99.99,,,-99.99,0.000000,,2013-08-07 03:01:00,
2013-08-06 21:11:00,73.0,39.0,29.86,NNE,22,10.0,-999.0,29,-99.99,,,-99.99,0.000000,,2013-08-07 03:11:00,
2013-08-06 21:22:00,73.0,40.0,29.87,NNE,22,11.0,-999.0,30,-99.99,,,-99.99,0.000000,,2013-08-07 03:22:00,
2013-08-06 21:32:00,71.0,40.0,29.88,NNE,18,7.0,-999.0,32,-99.99,,,-99.99,0.000000,,2013-08-07 03:32:00,
2013-08-06 21:43:00,71.0,40.0,29.88,NNE,18,7.0,-999.0,32,-99.99,,,-99.99,0.000000,,2013-08-07 03:43:00,
2013-08-06 21:52:00,71.0,39.0,29.88,North,5,6.0,-999.0,31,-99.99,,,-99.99,0.000000,,2013-08-07 03:52:00,
2013-08-06 22:01:00,71.0,40.0,29.89,NNE,21,5.0,-999.0,32,-99.99,,,-99.99,0.000000,,2013-08-07 04:01:00,
2013-08-06 22:11:00,71.0,40.0,29.89,NNE,21,5.0,-999.0,32,-99.99,,,-99.99,0.000000,,2013-08-07 04:11:00,
2013-08-06 22:21:00,71.0,40.0,29.89,NNE,21,5.0,-999.0,32,-99.99,,,-99.99,0.000000,,2013-08-07 04:21:00,
2013-08-06 22:33:00,71.0,40.0,29.89,NNE,21,5.0,-999.0,32,-99.99,,,-99.99,0.000000,,2013-08-07 04:33:00,
2013-08-06 22:43:00,71.0,40.0,29.89,NNE,21,5.0,-999.0,32,-99.99,,,-99.99,0.000000,,2013-08-07 04:43:00,
2013-08-06 22:52:00,69.0,39.0,29.92,ENE,66,0.0,-999.0,33,-99.99,,,-99.99,0.000000,,2013-08-07 04:52:00,
2013-08-06 23:02:00,69.0,38.0,29.92,ENE,67,3.0,-999.0,32,-99.99,,,-99.99,0.000000,,2013-08-07 05:02:00,
2013-08-06 23:11:00,69.0,38.0,29.92,ENE,67,3.0,-999.0,32,-99.99,,,-99.99,0.000000,,2013-08-07 05:11:00,
2013-08-06 23:22:00,69.0,39.0,29.93,ENE,73,0.0,-999.0,33,-99.99,,,-99.99,0.000000,,2013-08-07 05:22:00,
2013-08-06 23:32:00,68.0,39.0,29.95,ENE,73,0.0,-999.0,34,-99.99,,,-99.99,0.000000,,2013-08-07 05:32:00,
2013-08-06 23:43:00,68.0,39.0,29.95,ENE,73,0.0,-999.0,34,-99.99,,,-99.99,0.000000,,2013-08-07 05:43:00,
2013-08-06 23:52:00,68.0,39.0,29.95,ENE,73,0.0,-999.0,35,-99.99,,,-99.99,0.000000,,2013-08-07 05:52:00,